createdAt,value
2023-05-08T00:00:40.229Z,2.12
2023-05-08T00:03:07.407Z,2.10
2023-05-08T00:05:34.655Z,2.09
2023-05-08T00:08:02.296Z,2.04
2023-05-08T00:10:29.610Z,2.04
2023-05-08T00:12:57.089Z,2.10
2023-05-08T00:15:24.200Z,2.09
2023-05-08T00:17:51.498Z,2.15
2023-05-08T00:20:18.697Z,2.17
2023-05-08T00:22:45.761Z,2.18
2023-05-08T00:25:12.774Z,2.15
2023-05-08T00:27:39.830Z,2.14
2023-05-08T00:30:08.085Z,2.11
2023-05-08T00:32:35.447Z,2.10
2023-05-08T00:35:02.609Z,2.11
2023-05-08T00:37:30.652Z,2.09
2023-05-08T00:39:57.764Z,2.00
2023-05-08T00:42:24.849Z,1.97
2023-05-08T00:44:52.104Z,1.94
2023-05-08T00:47:19.233Z,1.90
2023-05-08T00:49:46.465Z,1.87
2023-05-08T00:52:13.596Z,1.88
2023-05-08T00:54:41.285Z,1.92
2023-05-08T00:57:08.761Z,1.89
2023-05-08T00:59:36.349Z,1.86
2023-05-08T01:02:03.582Z,1.80
2023-05-08T01:04:30.835Z,1.77
2023-05-08T01:06:57.950Z,1.77
2023-05-08T01:09:25.196Z,1.80
2023-05-08T01:12:18.988Z,1.81
2023-05-08T01:14:48.796Z,1.86
2023-05-08T01:17:35.645Z,1.89
2023-05-08T01:20:15.414Z,1.95
2023-05-08T01:23:01.477Z,1.99
2023-05-08T01:25:53.365Z,2.07
2023-05-08T01:28:43.182Z,2.16
2023-05-08T01:31:46.528Z,2.27
2023-05-08T01:34:21.879Z,2.33
2023-05-08T01:37:06.976Z,2.27
2023-05-08T01:39:49.621Z,2.25
2023-05-08T01:42:30.104Z,2.17
2023-05-08T01:45:00.107Z,2.08
2023-05-08T01:47:29.314Z,2.02
2023-05-08T01:50:05.804Z,1.99
2023-05-08T01:52:42.073Z,1.92
2023-05-08T01:55:10.220Z,1.84
2023-05-08T01:57:40.263Z,1.80
2023-05-08T02:00:08.286Z,1.85
2023-05-08T02:02:38.396Z,1.91
2023-05-08T02:05:08.180Z,1.86
2023-05-08T02:07:38.039Z,1.85
2023-05-08T02:10:06.160Z,1.91
2023-05-08T02:12:34.278Z,1.99
2023-05-08T02:15:03.756Z,2.03
2023-05-08T02:17:33.917Z,2.09
2023-05-08T02:20:01.372Z,2.11
2023-05-08T02:22:33.126Z,2.17
2023-05-08T02:25:00.455Z,2.25
2023-05-08T02:27:28.369Z,2.31
2023-05-08T02:29:56.596Z,2.34
2023-05-08T02:32:25.290Z,2.40
2023-05-08T02:35:02.570Z,2.42
2023-05-08T02:37:31.638Z,2.45
2023-05-08T02:39:58.921Z,2.49
2023-05-08T02:42:26.064Z,2.55
2023-05-08T02:44:53.399Z,2.61
2023-05-08T02:47:28.250Z,2.72
2023-05-08T02:50:18.385Z,2.74
2023-05-08T02:52:50.083Z,2.79
2023-05-08T02:55:26.316Z,2.87
2023-05-08T02:58:07.000Z,2.95
2023-05-08T03:00:42.802Z,2.97
2023-05-08T03:03:23.189Z,3.04
2023-05-08T03:05:58.162Z,3.06
2023-05-08T03:08:31.327Z,3.09
2023-05-08T03:11:01.226Z,3.18
2023-05-08T03:13:29.608Z,3.24
2023-05-08T03:16:00.995Z,3.28
2023-05-08T03:18:36.475Z,3.33
2023-05-08T03:21:04.476Z,3.33
2023-05-08T03:23:31.955Z,3.38
2023-05-08T03:26:00.108Z,3.44
2023-05-08T03:28:27.933Z,3.51
2023-05-08T03:30:58.258Z,3.64
2023-05-08T03:33:25.637Z,3.72
2023-05-08T03:35:53.788Z,3.82
2023-05-08T03:38:22.556Z,3.97
2023-05-08T03:40:49.780Z,4.12
2023-05-08T03:43:17.617Z,4.31
2023-05-08T03:45:45.494Z,4.44
2023-05-08T03:48:12.668Z,4.56
2023-05-08T03:50:41.435Z,4.72
2023-05-08T03:53:10.440Z,4.92
2023-05-08T03:55:38.103Z,5.09
2023-05-08T03:58:39.056Z,5.32
2023-05-08T04:01:09.261Z,5.61
2023-05-08T04:03:55.905Z,5.98
2023-05-08T04:06:30.773Z,6.31
2023-05-08T04:09:25.357Z,6.67
2023-05-08T04:12:11.410Z,7.02
2023-05-08T04:14:45.802Z,7.27
2023-05-08T04:17:14.643Z,7.55
2023-05-08T04:19:46.137Z,7.76
2023-05-08T04:22:13.830Z,7.89
2023-05-08T04:24:45.586Z,8.09
2023-05-08T04:27:13.248Z,8.37
2023-05-08T04:29:42.350Z,8.65
2023-05-08T04:32:10.061Z,8.88
2023-05-08T04:34:37.272Z,9.14
2023-05-08T04:37:07.456Z,9.35
2023-05-08T04:39:35.200Z,9.56
2023-05-08T04:42:03.887Z,9.86
2023-05-08T04:44:33.571Z,10.06
2023-05-08T04:47:00.696Z,10.23
2023-05-08T04:49:27.968Z,10.47
2023-05-08T04:51:55.295Z,10.70
2023-05-08T04:54:22.542Z,10.91
2023-05-08T04:56:49.846Z,11.11
2023-05-08T04:59:17.279Z,11.33
2023-05-08T05:01:46.943Z,11.57
2023-05-08T05:04:14.491Z,11.78
2023-05-08T05:06:41.694Z,11.97
2023-05-08T05:09:09.389Z,12.04
2023-05-08T05:11:36.433Z,12.11
2023-05-08T05:14:03.553Z,12.30
2023-05-08T05:16:30.734Z,12.42
2023-05-08T05:18:57.977Z,12.61
2023-05-08T05:21:25.204Z,12.73
2023-05-08T05:23:52.283Z,12.79
2023-05-08T05:26:19.626Z,12.83
2023-05-08T05:28:47.116Z,12.91
2023-05-08T05:31:14.188Z,13.08
2023-05-08T05:33:42.531Z,13.22
2023-05-08T05:36:09.740Z,13.28
2023-05-08T05:38:37.022Z,13.34
2023-05-08T05:41:05.035Z,13.50
2023-05-08T05:43:32.996Z,13.62
2023-05-08T05:46:09.781Z,13.59
2023-05-08T05:48:38.393Z,13.52
2023-05-08T05:51:07.065Z,13.48
2023-05-08T05:53:34.458Z,13.57
2023-05-08T05:56:01.936Z,13.67
2023-05-08T05:58:30.098Z,13.38
2023-05-08T06:01:00.693Z,13.37
2023-05-08T06:03:28.463Z,13.43
2023-05-08T06:05:56.529Z,13.48
2023-05-08T06:08:23.890Z,13.69
2023-05-08T06:10:51.054Z,13.86
2023-05-08T06:13:18.478Z,14.00
2023-05-08T06:15:46.658Z,14.14
2023-05-08T06:18:14.083Z,14.25
2023-05-08T06:20:41.226Z,14.37
2023-05-08T06:23:08.322Z,14.36
2023-05-08T06:25:35.469Z,14.37
2023-05-08T06:28:04.598Z,14.41
2023-05-08T06:30:31.685Z,14.38
2023-05-08T06:32:58.957Z,14.41
2023-05-08T06:35:26.375Z,14.47
2023-05-08T06:37:53.594Z,14.51
2023-05-08T06:40:20.831Z,14.49
2023-05-08T06:42:48.332Z,14.38
2023-05-08T06:45:15.806Z,14.24
2023-05-08T06:47:43.246Z,14.14
2023-05-08T06:50:10.783Z,14.08
2023-05-08T06:52:37.928Z,13.84
2023-05-08T06:55:05.465Z,13.57
2023-05-08T06:57:35.667Z,13.63
2023-05-08T07:00:02.730Z,13.97
2023-05-08T07:02:36.388Z,14.24
2023-05-08T07:05:03.997Z,14.41
2023-05-08T07:07:33.605Z,14.43
2023-05-08T07:10:01.005Z,14.44
2023-05-08T07:12:30.917Z,14.42
2023-05-08T07:14:58.159Z,14.59
2023-05-08T07:17:25.622Z,14.58
2023-05-08T07:19:52.968Z,14.64
2023-05-08T07:22:20.146Z,14.71
2023-05-08T07:24:47.259Z,14.92
2023-05-08T07:27:14.894Z,15.04
2023-05-08T07:29:42.767Z,14.96
2023-05-08T07:32:10.102Z,14.95
2023-05-08T07:34:37.439Z,15.08
2023-05-08T07:37:04.481Z,15.25
2023-05-08T07:39:31.947Z,15.30
2023-05-08T07:41:59.119Z,15.34
2023-05-08T07:44:26.460Z,15.51
2023-05-08T07:46:53.684Z,15.62
2023-05-08T07:49:20.855Z,15.73
2023-05-08T07:51:47.899Z,15.58
2023-05-08T07:54:14.965Z,15.32
2023-05-08T07:56:42.036Z,15.00
2023-05-08T07:59:09.130Z,14.86
2023-05-08T08:01:36.502Z,14.65
2023-05-08T08:04:04.073Z,14.34
2023-05-08T08:06:31.825Z,14.11
2023-05-08T08:08:58.995Z,14.16
2023-05-08T08:11:26.171Z,14.37
2023-05-08T08:13:53.612Z,14.33
2023-05-08T08:16:20.729Z,14.15
2023-05-08T08:18:47.913Z,14.04
2023-05-08T08:21:15.559Z,13.96
2023-05-08T08:23:42.747Z,13.84
2023-05-08T08:26:11.268Z,13.81
2023-05-08T08:28:38.346Z,13.80
2023-05-08T08:31:05.518Z,13.83
2023-05-08T08:33:32.696Z,13.74
2023-05-08T08:35:59.998Z,13.74
2023-05-08T08:38:27.460Z,13.65
2023-05-08T08:40:54.812Z,13.57
2023-05-08T08:43:22.030Z,13.53
2023-05-08T08:45:49.066Z,13.61
2023-05-08T08:48:16.413Z,13.76
2023-05-08T08:50:46.929Z,13.82
2023-05-08T08:53:27.367Z,13.92
2023-05-08T08:55:56.064Z,13.90
2023-05-08T08:58:36.686Z,13.72
2023-05-08T09:01:05.836Z,13.53
2023-05-08T09:03:33.284Z,13.41
2023-05-08T09:06:01.574Z,13.26
2023-05-08T09:08:29.077Z,13.19
2023-05-08T09:10:56.563Z,13.09
2023-05-08T09:13:23.767Z,12.95
2023-05-08T09:15:51.111Z,12.97
2023-05-08T09:18:19.395Z,13.03
2023-05-08T09:20:46.698Z,13.19
2023-05-08T09:23:17.506Z,13.31
2023-05-08T09:25:45.561Z,13.41
2023-05-08T09:28:32.762Z,13.37
2023-05-08T09:31:02.998Z,13.21
2023-05-08T09:33:30.320Z,13.02
2023-05-08T09:35:57.686Z,12.89
2023-05-08T09:38:35.489Z,12.88
2023-05-08T09:41:28.943Z,12.79
2023-05-08T09:44:03.804Z,12.67
2023-05-08T09:46:31.011Z,12.59
2023-05-08T09:48:59.688Z,12.56
2023-05-08T09:51:28.252Z,12.52
2023-05-08T09:53:56.931Z,12.54
2023-05-08T09:56:37.765Z,12.54
2023-05-08T09:59:06.814Z,12.47
2023-05-08T10:01:35.633Z,12.36
2023-05-08T10:04:03.788Z,12.35
2023-05-08T10:06:30.928Z,12.35
2023-05-08T10:09:16.232Z,12.38
2023-05-08T10:11:53.590Z,12.42
2023-05-08T10:14:21.093Z,12.39
2023-05-08T10:16:49.915Z,12.29
2023-05-08T10:19:18.017Z,12.26
2023-05-08T10:21:49.918Z,12.20
2023-05-08T10:24:18.998Z,12.20
2023-05-08T10:27:10.732Z,12.28
2023-05-08T10:29:54.324Z,12.36
2023-05-08T10:32:21.904Z,12.39
2023-05-08T10:34:53.826Z,12.41
2023-05-08T10:37:21.119Z,12.37
2023-05-08T10:39:49.136Z,12.48
2023-05-08T10:42:16.282Z,12.67
2023-05-08T10:44:43.395Z,12.92
2023-05-08T10:47:18.886Z,13.05
2023-05-08T10:49:55.730Z,13.12
2023-05-08T10:52:52.901Z,13.16
2023-05-08T10:55:29.919Z,13.15
2023-05-08T10:58:12.866Z,13.05
2023-05-08T11:00:52.222Z,13.02
2023-05-08T11:03:31.480Z,12.87
2023-05-08T11:06:00.256Z,12.79
2023-05-08T11:08:28.446Z,12.69
2023-05-08T11:11:02.052Z,12.57
2023-05-08T11:13:32.616Z,12.36
2023-05-08T11:15:59.965Z,12.23
2023-05-08T11:18:32.551Z,12.19
2023-05-08T11:21:15.282Z,12.15
2023-05-08T11:23:42.424Z,12.05
2023-05-08T11:26:16.599Z,12.04
2023-05-08T11:28:57.043Z,11.99
2023-05-08T11:31:24.382Z,11.92
2023-05-08T11:33:51.689Z,11.93
2023-05-08T11:36:23.263Z,11.92
2023-05-08T11:39:12.756Z,11.94
2023-05-08T11:41:39.949Z,11.87
2023-05-08T11:44:17.407Z,11.85
2023-05-08T11:46:50.533Z,11.87
2023-05-08T11:49:22.946Z,11.88
2023-05-08T11:51:55.406Z,11.92
2023-05-08T11:54:22.680Z,11.95
2023-05-08T11:56:50.409Z,11.89
2023-05-08T11:59:17.838Z,11.94
2023-05-08T12:01:53.544Z,12.19
2023-05-08T12:04:27.656Z,12.36
2023-05-08T12:06:57.651Z,12.34
2023-05-08T12:09:24.864Z,12.31
2023-05-08T12:11:56.951Z,12.31
2023-05-08T12:14:24.119Z,12.29
2023-05-08T12:16:51.689Z,12.19
2023-05-08T12:19:18.845Z,12.17
2023-05-08T12:21:49.310Z,11.99
2023-05-08T12:24:18.824Z,11.87
2023-05-08T12:26:46.577Z,11.77
2023-05-08T12:29:13.735Z,11.77
2023-05-08T12:31:41.367Z,11.73
2023-05-08T12:34:08.580Z,11.70
2023-05-08T12:36:36.484Z,11.68
2023-05-08T12:39:12.067Z,11.57
2023-05-08T12:41:52.890Z,11.44
2023-05-08T12:44:26.203Z,11.41
2023-05-08T12:46:54.599Z,11.45
2023-05-08T12:49:31.247Z,11.45
2023-05-08T12:52:08.789Z,11.42
2023-05-08T12:54:41.121Z,11.42
2023-05-08T12:57:15.723Z,11.42
2023-05-08T12:59:43.289Z,11.48
2023-05-08T13:02:24.260Z,11.51
2023-05-08T13:04:56.155Z,11.54
2023-05-08T13:07:23.456Z,11.57
2023-05-08T13:10:02.328Z,11.60
2023-05-08T13:12:33.955Z,11.61
2023-05-08T13:15:01.665Z,11.64
2023-05-08T13:17:31.933Z,11.65
2023-05-08T13:19:59.217Z,11.58
2023-05-08T13:22:26.888Z,11.51
2023-05-08T13:24:54.123Z,11.52
2023-05-08T13:27:21.297Z,11.62
2023-05-08T13:29:48.421Z,11.79
2023-05-08T13:32:15.858Z,11.88
2023-05-08T13:34:49.727Z,11.92
2023-05-08T13:37:18.759Z,11.97
2023-05-08T13:39:46.034Z,11.97
2023-05-08T13:42:13.170Z,11.87
2023-05-08T13:44:40.768Z,11.73
2023-05-08T13:47:07.838Z,11.58
2023-05-08T13:49:34.969Z,11.48
2023-05-08T13:52:02.087Z,11.42
2023-05-08T13:54:29.419Z,11.35
2023-05-08T13:56:56.492Z,11.36
2023-05-08T13:59:23.640Z,11.36
2023-05-08T14:01:50.702Z,11.29
2023-05-08T14:04:19.288Z,11.26
2023-05-08T14:06:46.703Z,11.21
2023-05-08T14:09:14.336Z,11.18
2023-05-08T14:11:41.506Z,11.13
2023-05-08T14:14:08.782Z,11.11
2023-05-08T14:16:36.111Z,11.10
2023-05-08T14:19:03.346Z,11.10
2023-05-08T14:21:31.410Z,11.11
2023-05-08T14:23:58.657Z,11.14
2023-05-08T14:26:26.478Z,11.09
2023-05-08T14:28:53.739Z,11.06
2023-05-08T14:31:20.794Z,11.06
2023-05-08T14:33:48.075Z,11.01
2023-05-08T14:36:15.204Z,11.04
2023-05-08T14:38:42.208Z,11.09
2023-05-08T14:41:09.450Z,11.15
2023-05-08T14:43:36.681Z,11.17
2023-05-08T14:46:04.019Z,11.19
2023-05-08T14:48:31.493Z,11.27
2023-05-08T14:50:58.647Z,11.26
2023-05-08T14:53:26.087Z,11.27
2023-05-08T14:55:53.538Z,11.30
2023-05-08T14:58:20.873Z,11.34
2023-05-08T15:00:48.128Z,11.34
2023-05-08T15:03:15.222Z,11.34
2023-05-08T15:05:42.379Z,11.33
2023-05-08T15:08:09.959Z,11.33
2023-05-08T15:10:37.115Z,11.29
2023-05-08T15:13:04.425Z,11.30
2023-05-08T15:15:31.593Z,11.24
2023-05-08T15:17:58.703Z,11.23
2023-05-08T15:20:25.952Z,11.23
2023-05-08T15:22:54.315Z,11.24
2023-05-08T15:25:21.423Z,11.21
2023-05-08T15:27:52.858Z,11.17
2023-05-08T15:30:20.553Z,11.19
2023-05-08T15:32:48.339Z,11.14
2023-05-08T15:35:15.876Z,11.12
2023-05-08T15:37:43.617Z,11.10
2023-05-08T15:40:11.261Z,11.13
2023-05-08T15:42:38.289Z,11.07
2023-05-08T15:45:05.798Z,11.01
2023-05-08T15:47:33.421Z,10.92
2023-05-08T15:50:00.599Z,10.80
2023-05-08T15:52:27.921Z,10.71
2023-05-08T15:54:55.033Z,10.67
2023-05-08T15:57:22.236Z,10.64
2023-05-08T16:00:16.811Z,10.57
2023-05-08T16:02:43.905Z,10.54
2023-05-08T16:05:11.213Z,10.55
2023-05-08T16:07:38.537Z,10.54
2023-05-08T16:10:07.396Z,10.53
2023-05-08T16:12:34.821Z,10.53
2023-05-08T16:15:01.990Z,10.48
2023-05-08T16:17:32.856Z,10.43
2023-05-08T16:20:00.898Z,10.37
2023-05-08T16:22:29.224Z,10.34
2023-05-08T16:24:56.320Z,10.31
2023-05-08T16:27:23.472Z,10.29
2023-05-08T16:29:50.603Z,10.28
2023-05-08T16:32:17.819Z,10.25
2023-05-08T16:34:45.094Z,10.25
2023-05-08T16:37:12.450Z,10.22
2023-05-08T16:39:39.550Z,10.18
2023-05-08T16:42:07.620Z,10.18
2023-05-08T16:44:36.018Z,10.19
2023-05-08T16:47:03.397Z,10.17
2023-05-08T16:49:30.598Z,10.15
2023-05-08T16:51:57.869Z,10.12
2023-05-08T16:54:26.302Z,10.11
2023-05-08T16:56:53.394Z,10.08
2023-05-08T16:59:20.444Z,9.99
2023-05-08T17:01:47.724Z,9.91
2023-05-08T17:04:14.898Z,9.88
2023-05-08T17:06:42.005Z,9.85
2023-05-08T17:09:09.132Z,9.85
2023-05-08T17:11:36.324Z,9.85
2023-05-08T17:14:03.422Z,9.86
2023-05-08T17:16:30.616Z,9.85
2023-05-08T17:18:59.714Z,9.84
2023-05-08T17:21:27.121Z,9.82
2023-05-08T17:23:55.206Z,9.74
2023-05-08T17:26:23.102Z,9.71
2023-05-08T17:28:50.205Z,9.65
2023-05-08T17:31:17.382Z,9.61
2023-05-08T17:33:44.569Z,9.50
2023-05-08T17:36:11.767Z,9.41
2023-05-08T17:38:43.838Z,9.35
2023-05-08T17:41:10.974Z,9.21
2023-05-08T17:43:38.134Z,9.13
2023-05-08T17:46:05.884Z,9.07
2023-05-08T17:48:34.132Z,8.92
2023-05-08T17:51:02.910Z,8.83
2023-05-08T17:53:33.210Z,8.75
2023-05-08T17:56:00.657Z,8.65
2023-05-08T17:58:27.905Z,8.57
2023-05-08T18:00:56.170Z,8.46
2023-05-08T18:03:23.516Z,8.33
2023-05-08T18:05:50.772Z,8.27
2023-05-08T18:08:18.453Z,8.22
2023-05-08T18:10:45.562Z,8.22
2023-05-08T18:13:13.119Z,8.22
2023-05-08T18:15:41.455Z,8.15
2023-05-08T18:18:08.692Z,8.08
2023-05-08T18:20:35.807Z,7.97
2023-05-08T18:23:02.921Z,7.85
2023-05-08T18:25:30.203Z,7.76
2023-05-08T18:27:59.048Z,7.66
2023-05-08T18:30:26.148Z,7.57
2023-05-08T18:32:54.844Z,7.43
2023-05-08T18:35:21.963Z,7.41
2023-05-08T18:37:49.143Z,7.32
2023-05-08T18:40:16.501Z,7.19
2023-05-08T18:42:43.766Z,7.07
2023-05-08T18:45:11.567Z,7.03
2023-05-08T18:47:38.807Z,6.99
2023-05-08T18:50:06.381Z,6.89
2023-05-08T18:52:34.389Z,6.76
2023-05-08T18:55:02.565Z,6.79
2023-05-08T18:57:31.054Z,6.83
2023-05-08T18:59:58.179Z,6.80
2023-05-08T19:02:28.013Z,6.84
2023-05-08T19:04:55.896Z,6.88
2023-05-08T19:07:23.015Z,6.92
2023-05-08T19:09:50.241Z,6.92
2023-05-08T19:12:17.327Z,6.90
2023-05-08T19:14:44.565Z,6.80
2023-05-08T19:17:12.856Z,6.75
2023-05-08T19:19:40.049Z,6.68
2023-05-08T19:22:07.384Z,6.60
2023-05-08T19:24:34.652Z,6.48
2023-05-08T19:27:01.802Z,6.37
2023-05-08T19:29:28.956Z,6.29
2023-05-08T19:31:56.783Z,6.17
2023-05-08T19:34:24.243Z,6.10
2023-05-08T19:36:51.510Z,6.05
2023-05-08T19:39:18.914Z,5.98
2023-05-08T19:41:46.277Z,6.04
2023-05-08T19:44:13.335Z,6.01
2023-05-08T19:46:40.539Z,5.99
2023-05-08T19:49:08.270Z,5.96
2023-05-08T19:51:35.398Z,5.89
2023-05-08T19:54:02.632Z,5.87
2023-05-08T19:56:29.779Z,5.84
2023-05-08T19:58:56.974Z,5.81
2023-05-08T20:01:24.193Z,5.79
2023-05-08T20:03:51.351Z,5.74
2023-05-08T20:06:18.490Z,5.69
2023-05-08T20:08:45.925Z,5.65
2023-05-08T20:11:13.061Z,5.60
2023-05-08T20:13:40.204Z,5.53
2023-05-08T20:16:07.674Z,5.47
2023-05-08T20:18:35.687Z,5.43
2023-05-08T20:21:03.264Z,5.40
2023-05-08T20:23:32.333Z,5.40
2023-05-08T20:25:59.526Z,5.42
2023-05-08T20:28:26.609Z,5.41
2023-05-08T20:30:53.800Z,5.38
2023-05-08T20:33:21.098Z,5.33
2023-05-08T20:35:48.333Z,5.32
2023-05-08T20:38:16.289Z,5.30
2023-05-08T20:40:43.354Z,5.30
2023-05-08T20:43:11.097Z,5.30
2023-05-08T20:45:38.493Z,5.33
2023-05-08T20:48:06.021Z,5.37
2023-05-08T20:50:33.272Z,5.39
2023-05-08T20:53:00.361Z,5.43
2023-05-08T20:55:27.587Z,5.48
2023-05-08T20:57:54.733Z,5.45
2023-05-08T21:00:21.950Z,5.34
2023-05-08T21:02:49.156Z,5.22
2023-05-08T21:05:16.569Z,5.29
2023-05-08T21:07:43.812Z,5.27
2023-05-08T21:10:11.673Z,5.19
2023-05-08T21:12:39.379Z,5.11
2023-05-08T21:15:07.450Z,5.10
2023-05-08T21:21:17.176Z,5.04
2023-05-08T21:23:44.284Z,5.05
2023-05-08T21:26:11.778Z,5.09
2023-05-08T21:28:39.056Z,5.09
2023-05-08T21:31:06.452Z,5.12
2023-05-08T21:33:33.920Z,5.11
2023-05-08T21:36:01.122Z,5.14
2023-05-08T21:38:28.182Z,5.19
2023-05-08T21:40:55.837Z,5.24
2023-05-08T21:43:23.123Z,5.27
2023-05-08T21:45:50.401Z,5.31
2023-05-08T21:48:17.558Z,5.36
2023-05-08T21:50:44.733Z,5.30
2023-05-08T21:53:11.850Z,5.31
2023-05-08T21:55:39.171Z,5.38
2023-05-08T21:58:06.279Z,5.36
2023-05-08T22:00:33.469Z,5.40
2023-05-08T22:03:01.186Z,5.48
2023-05-08T22:05:28.493Z,5.54
2023-05-08T22:07:55.641Z,5.61
2023-05-08T22:10:22.847Z,5.63
2023-05-08T22:12:50.239Z,5.67
2023-05-08T22:15:29.234Z,5.68
2023-05-08T22:17:58.374Z,5.67
2023-05-08T22:20:25.790Z,5.51
2023-05-08T22:22:52.997Z,5.30
2023-05-08T22:25:21.813Z,5.35
2023-05-08T22:27:49.264Z,5.46
2023-05-08T22:30:16.399Z,5.53
2023-05-08T22:32:43.744Z,5.57
2023-05-08T22:35:11.189Z,5.62
2023-05-08T22:37:38.427Z,5.55
2023-05-08T22:40:06.252Z,5.55
2023-05-08T22:42:33.632Z,5.59
2023-05-08T22:45:01.287Z,5.64
2023-05-08T22:47:32.904Z,5.63
2023-05-08T22:50:00.246Z,5.60
2023-05-08T22:52:27.638Z,5.56
2023-05-08T22:54:54.855Z,5.62
2023-05-08T22:57:22.374Z,5.66
2023-05-08T22:59:49.527Z,5.65
2023-05-08T23:02:16.656Z,5.65
2023-05-08T23:04:43.826Z,5.75
2023-05-08T23:07:11.092Z,5.74
2023-05-08T23:09:38.357Z,5.75
2023-05-08T23:12:06.137Z,5.85
2023-05-08T23:14:33.232Z,5.87
2023-05-08T23:17:00.538Z,5.78
2023-05-08T23:19:27.813Z,5.83
2023-05-08T23:21:54.907Z,5.90
2023-05-08T23:24:22.233Z,5.92
2023-05-08T23:26:49.876Z,5.94
2023-05-08T23:29:17.186Z,5.87
2023-05-08T23:31:44.426Z,5.87
2023-05-08T23:34:11.590Z,5.90
2023-05-08T23:36:38.803Z,5.97
2023-05-08T23:39:07.146Z,5.99
2023-05-08T23:41:34.230Z,5.97
2023-05-08T23:44:01.376Z,6.01
2023-05-08T23:46:28.599Z,6.03
2023-05-08T23:48:56.117Z,5.92
2023-05-08T23:51:23.274Z,5.93
2023-05-08T23:53:50.895Z,5.94
2023-05-08T23:56:18.124Z,5.88
2023-05-08T23:58:45.274Z,5.79
